sensor_id;sensor_type;location;lat;lon;timestamp;P1;durP1;ratioP1;P2;durP2;ratioP2
5117;SDS011;2578;51.622;7.046;2023-03-01T00:01:14;2.90;;;2.10;;
5117;SDS011;2578;51.622;7.046;2023-03-01T00:03:42;2.70;;;2.00;;
5117;SDS011;2578;51.622;7.046;2023-03-01T00:06:08;2.70;;;1.80;;
5117;SDS011;2578;51.622;7.046;2023-03-01T00:08:33;2.70;;;1.80;;
5117;SDS011;2578;51.622;7.046;2023-03-01T00:11:01;2.80;;;1.90;;
5117;SDS011;2578;51.622;7.046;2023-03-01T00:13:30;2.80;;;2.00;;
5117;SDS011;2578;51.622;7.046;2023-03-01T00:15:55;2.90;;;2.10;;
5117;SDS011;2578;51.622;7.046;2023-03-01T00:18:21;3.07;;;2.60;;
5117;SDS011;2578;51.622;7.046;2023-03-01T00:20:53;3.10;;;2.70;;
5117;SDS011;2578;51.622;7.046;2023-03-01T00:23:20;3.10;;;2.60;;
5117;SDS011;2578;51.622;7.046;2023-03-01T00:25:46;7.50;;;6.80;;
5117;SDS011;2578;51.622;7.046;2023-03-01T00:28:12;3.63;;;3.23;;
5117;SDS011;2578;51.622;7.046;2023-03-01T00:30:38;3.10;;;2.77;;
5117;SDS011;2578;51.622;7.046;2023-03-01T00:33:03;3.50;;;3.20;;
5117;SDS011;2578;51.622;7.046;2023-03-01T00:35:29;3.73;;;3.17;;
5117;SDS011;2578;51.622;7.046;2023-03-01T00:37:57;3.40;;;2.90;;
5117;SDS011;2578;51.622;7.046;2023-03-01T00:40:30;3.00;;;2.43;;
5117;SDS011;2578;51.622;7.046;2023-03-01T00:42:58;3.00;;;2.40;;
5117;SDS011;2578;51.622;7.046;2023-03-01T00:45:23;2.70;;;1.87;;
5117;SDS011;2578;51.622;7.046;2023-03-01T00:47:50;2.80;;;1.80;;
5117;SDS011;2578;51.622;7.046;2023-03-01T00:50:16;2.70;;;1.80;;
5117;SDS011;2578;51.622;7.046;2023-03-01T00:52:42;2.80;;;1.70;;
5117;SDS011;2578;51.622;7.046;2023-03-01T00:55:07;2.60;;;1.60;;
5117;SDS011;2578;51.622;7.046;2023-03-01T00:57:33;2.70;;;1.70;;
5117;SDS011;2578;51.622;7.046;2023-03-01T00:59:59;2.60;;;1.60;;
5117;SDS011;2578;51.622;7.046;2023-03-01T01:02:25;2.70;;;1.60;;
5117;SDS011;2578;51.622;7.046;2023-03-01T01:04:51;2.63;;;1.53;;
5117;SDS011;2578;51.622;7.046;2023-03-01T01:07:17;2.60;;;1.60;;
5117;SDS011;2578;51.622;7.046;2023-03-01T01:09:45;2.83;;;2.00;;
5117;SDS011;2578;51.622;7.046;2023-03-01T01:12:11;3.00;;;2.07;;
5117;SDS011;2578;51.622;7.046;2023-03-01T01:14:36;2.90;;;1.90;;
5117;SDS011;2578;51.622;7.046;2023-03-01T01:17:02;8.40;;;3.40;;
5117;SDS011;2578;51.622;7.046;2023-03-01T01:19:28;3.07;;;2.20;;
5117;SDS011;2578;51.622;7.046;2023-03-01T01:21:54;2.70;;;1.73;;
5117;SDS011;2578;51.622;7.046;2023-03-01T01:24:20;2.60;;;1.63;;
5117;SDS011;2578;51.622;7.046;2023-03-01T01:26:45;2.70;;;1.77;;
5117;SDS011;2578;51.622;7.046;2023-03-01T01:29:11;2.70;;;1.80;;
5117;SDS011;2578;51.622;7.046;2023-03-01T01:31:38;2.67;;;1.70;;
5117;SDS011;2578;51.622;7.046;2023-03-01T01:34:05;2.63;;;1.60;;
5117;SDS011;2578;51.622;7.046;2023-03-01T01:36:33;2.50;;;1.50;;
5117;SDS011;2578;51.622;7.046;2023-03-01T01:39:00;2.70;;;1.60;;
5117;SDS011;2578;51.622;7.046;2023-03-01T01:41:27;2.60;;;1.40;;
5117;SDS011;2578;51.622;7.046;2023-03-01T01:46:41;2.60;;;1.50;;
5117;SDS011;2578;51.622;7.046;2023-03-01T01:51:40;2.60;;;1.50;;
5117;SDS011;2578;51.622;7.046;2023-03-01T01:54:10;2.50;;;1.30;;
5117;SDS011;2578;51.622;7.046;2023-03-01T01:56:39;2.50;;;1.30;;
5117;SDS011;2578;51.622;7.046;2023-03-01T01:59:09;11.60;;;10.70;;
5117;SDS011;2578;51.622;7.046;2023-03-01T02:01:36;2.60;;;1.30;;
5117;SDS011;2578;51.622;7.046;2023-03-01T02:04:01;2.57;;;1.30;;
5117;SDS011;2578;51.622;7.046;2023-03-01T02:06:33;2.50;;;1.30;;
5117;SDS011;2578;51.622;7.046;2023-03-01T02:09:08;2.60;;;1.50;;
5117;SDS011;2578;51.622;7.046;2023-03-01T02:11:38;2.60;;;1.40;;
5117;SDS011;2578;51.622;7.046;2023-03-01T02:14:04;3.70;;;2.00;;
5117;SDS011;2578;51.622;7.046;2023-03-01T02:16:30;2.90;;;1.97;;
5117;SDS011;2578;51.622;7.046;2023-03-01T02:18:56;2.70;;;1.80;;
5117;SDS011;2578;51.622;7.046;2023-03-01T02:21:29;2.60;;;1.50;;
5117;SDS011;2578;51.622;7.046;2023-03-01T02:24:18;2.50;;;1.40;;
5117;SDS011;2578;51.622;7.046;2023-03-01T02:26:52;2.50;;;1.40;;
5117;SDS011;2578;51.622;7.046;2023-03-01T02:29:21;2.60;;;1.50;;
5117;SDS011;2578;51.622;7.046;2023-03-01T02:31:50;2.80;;;1.77;;
5117;SDS011;2578;51.622;7.046;2023-03-01T02:34:20;3.10;;;2.07;;
5117;SDS011;2578;51.622;7.046;2023-03-01T02:36:48;2.53;;;1.30;;
5117;SDS011;2578;51.622;7.046;2023-03-01T02:39:18;2.50;;;1.43;;
5117;SDS011;2578;51.622;7.046;2023-03-01T02:41:52;2.50;;;1.40;;
5117;SDS011;2578;51.622;7.046;2023-03-01T02:44:19;2.50;;;1.23;;
5117;SDS011;2578;51.622;7.046;2023-03-01T02:46:49;2.50;;;1.30;;
5117;SDS011;2578;51.622;7.046;2023-03-01T02:54:42;2.60;;;1.40;;
5117;SDS011;2578;51.622;7.046;2023-03-01T02:57:21;2.60;;;1.40;;
5117;SDS011;2578;51.622;7.046;2023-03-01T02:59:47;2.57;;;1.40;;
5117;SDS011;2578;51.622;7.046;2023-03-01T03:02:22;2.60;;;1.40;;
5117;SDS011;2578;51.622;7.046;2023-03-01T03:05:04;2.50;;;1.40;;
5117;SDS011;2578;51.622;7.046;2023-03-01T03:07:33;2.50;;;1.30;;
5117;SDS011;2578;51.622;7.046;2023-03-01T03:10:01;2.50;;;1.40;;
5117;SDS011;2578;51.622;7.046;2023-03-01T03:12:28;2.60;;;1.60;;
5117;SDS011;2578;51.622;7.046;2023-03-01T03:14:54;2.60;;;1.50;;
5117;SDS011;2578;51.622;7.046;2023-03-01T03:17:20;3.63;;;2.27;;
5117;SDS011;2578;51.622;7.046;2023-03-01T03:19:45;2.70;;;1.77;;
5117;SDS011;2578;51.622;7.046;2023-03-01T03:22:12;2.53;;;1.40;;
5117;SDS011;2578;51.622;7.046;2023-03-01T03:24:37;2.80;;;1.77;;
5117;SDS011;2578;51.622;7.046;2023-03-01T03:27:03;2.50;;;1.40;;
5117;SDS011;2578;51.622;7.046;2023-03-01T03:29:30;2.60;;;1.40;;
5117;SDS011;2578;51.622;7.046;2023-03-01T03:31:55;2.57;;;1.40;;
5117;SDS011;2578;51.622;7.046;2023-03-01T03:34:21;2.50;;;1.40;;
5117;SDS011;2578;51.622;7.046;2023-03-01T03:36:48;2.50;;;1.50;;
5117;SDS011;2578;51.622;7.046;2023-03-01T03:39:21;2.60;;;1.40;;
5117;SDS011;2578;51.622;7.046;2023-03-01T03:41:48;2.80;;;1.83;;
5117;SDS011;2578;51.622;7.046;2023-03-01T03:44:13;2.60;;;1.40;;
5117;SDS011;2578;51.622;7.046;2023-03-01T03:46:39;2.60;;;1.47;;
5117;SDS011;2578;51.622;7.046;2023-03-01T03:49:05;2.50;;;1.30;;
5117;SDS011;2578;51.622;7.046;2023-03-01T03:51:30;2.50;;;1.30;;
5117;SDS011;2578;51.622;7.046;2023-03-01T03:53:56;2.50;;;1.30;;
5117;SDS011;2578;51.622;7.046;2023-03-01T03:56:21;4.50;;;2.90;;
5117;SDS011;2578;51.622;7.046;2023-03-01T03:58:50;2.60;;;1.43;;
5117;SDS011;2578;51.622;7.046;2023-03-01T04:01:19;2.70;;;1.80;;
5117;SDS011;2578;51.622;7.046;2023-03-01T04:03:44;2.70;;;1.50;;
5117;SDS011;2578;51.622;7.046;2023-03-01T04:06:12;2.80;;;1.87;;
5117;SDS011;2578;51.622;7.046;2023-03-01T04:08:39;2.63;;;1.50;;
5117;SDS011;2578;51.622;7.046;2023-03-01T04:11:05;2.60;;;1.50;;
5117;SDS011;2578;51.622;7.046;2023-03-01T04:13:50;2.60;;;1.50;;
5117;SDS011;2578;51.622;7.046;2023-03-01T04:16:17;2.60;;;1.50;;
5117;SDS011;2578;51.622;7.046;2023-03-01T04:18:43;2.60;;;1.50;;
5117;SDS011;2578;51.622;7.046;2023-03-01T04:21:09;2.60;;;1.40;;
5117;SDS011;2578;51.622;7.046;2023-03-01T04:23:36;2.60;;;1.50;;
5117;SDS011;2578;51.622;7.046;2023-03-01T04:26:02;2.53;;;1.47;;
5117;SDS011;2578;51.622;7.046;2023-03-01T04:28:32;2.60;;;1.50;;
5117;SDS011;2578;51.622;7.046;2023-03-01T04:31:04;2.60;;;1.57;;
5117;SDS011;2578;51.622;7.046;2023-03-01T04:33:48;2.60;;;1.50;;
5117;SDS011;2578;51.622;7.046;2023-03-01T04:36:19;2.70;;;1.70;;
5117;SDS011;2578;51.622;7.046;2023-03-01T04:38:47;2.53;;;1.40;;
5117;SDS011;2578;51.622;7.046;2023-03-01T04:41:13;2.60;;;1.40;;
5117;SDS011;2578;51.622;7.046;2023-03-01T04:43:41;2.60;;;1.50;;
5117;SDS011;2578;51.622;7.046;2023-03-01T04:46:07;3.07;;;2.47;;
5117;SDS011;2578;51.622;7.046;2023-03-01T04:48:38;2.70;;;1.60;;
5117;SDS011;2578;51.622;7.046;2023-03-01T04:51:05;2.70;;;1.70;;
5117;SDS011;2578;51.622;7.046;2023-03-01T04:53:31;2.60;;;1.67;;
5117;SDS011;2578;51.622;7.046;2023-03-01T04:55:57;2.60;;;1.60;;
5117;SDS011;2578;51.622;7.046;2023-03-01T04:58:24;2.60;;;1.50;;
5117;SDS011;2578;51.622;7.046;2023-03-01T05:00:51;2.60;;;1.40;;
5117;SDS011;2578;51.622;7.046;2023-03-01T05:03:17;2.53;;;1.40;;
5117;SDS011;2578;51.622;7.046;2023-03-01T05:05:44;2.60;;;1.50;;
5117;SDS011;2578;51.622;7.046;2023-03-01T05:08:11;2.90;;;2.03;;
5117;SDS011;2578;51.622;7.046;2023-03-01T05:10:42;4.27;;;2.47;;
5117;SDS011;2578;51.622;7.046;2023-03-01T05:13:08;2.70;;;1.70;;
5117;SDS011;2578;51.622;7.046;2023-03-01T05:15:34;2.70;;;1.60;;
5117;SDS011;2578;51.622;7.046;2023-03-01T05:18:01;2.80;;;1.70;;
5117;SDS011;2578;51.622;7.046;2023-03-01T05:20:28;3.17;;;2.00;;
5117;SDS011;2578;51.622;7.046;2023-03-01T05:22:55;2.77;;;1.80;;
5117;SDS011;2578;51.622;7.046;2023-03-01T05:25:23;2.63;;;1.50;;
5117;SDS011;2578;51.622;7.046;2023-03-01T05:27:49;2.67;;;1.40;;
5117;SDS011;2578;51.622;7.046;2023-03-01T05:30:16;2.60;;;1.40;;
5117;SDS011;2578;51.622;7.046;2023-03-01T05:32:43;2.60;;;1.50;;
5117;SDS011;2578;51.622;7.046;2023-03-01T05:35:10;2.60;;;1.50;;
5117;SDS011;2578;51.622;7.046;2023-03-01T05:37:38;2.60;;;1.43;;
5117;SDS011;2578;51.622;7.046;2023-03-01T05:40:06;2.60;;;1.50;;
5117;SDS011;2578;51.622;7.046;2023-03-01T05:42:40;2.67;;;1.60;;
5117;SDS011;2578;51.622;7.046;2023-03-01T05:45:10;3.23;;;2.60;;
5117;SDS011;2578;51.622;7.046;2023-03-01T05:47:37;2.60;;;1.40;;
5117;SDS011;2578;51.622;7.046;2023-03-01T05:50:08;2.60;;;1.50;;
5117;SDS011;2578;51.622;7.046;2023-03-01T05:52:39;2.53;;;1.50;;
5117;SDS011;2578;51.622;7.046;2023-03-01T05:55:04;4.33;;;2.17;;
5117;SDS011;2578;51.622;7.046;2023-03-01T05:57:31;2.67;;;1.60;;
5117;SDS011;2578;51.622;7.046;2023-03-01T05:59:56;2.63;;;1.50;;
5117;SDS011;2578;51.622;7.046;2023-03-01T06:02:22;2.70;;;1.60;;
5117;SDS011;2578;51.622;7.046;2023-03-01T06:04:48;2.70;;;1.60;;
5117;SDS011;2578;51.622;7.046;2023-03-01T06:07:13;2.70;;;1.70;;
5117;SDS011;2578;51.622;7.046;2023-03-01T06:09:39;2.70;;;1.80;;
5117;SDS011;2578;51.622;7.046;2023-03-01T06:12:04;2.70;;;1.50;;
5117;SDS011;2578;51.622;7.046;2023-03-01T06:14:30;2.70;;;1.60;;
5117;SDS011;2578;51.622;7.046;2023-03-01T06:16:56;2.90;;;1.80;;
5117;SDS011;2578;51.622;7.046;2023-03-01T06:19:23;2.60;;;1.40;;
5117;SDS011;2578;51.622;7.046;2023-03-01T06:21:49;2.70;;;1.60;;
5117;SDS011;2578;51.622;7.046;2023-03-01T06:24:14;2.60;;;1.30;;
5117;SDS011;2578;51.622;7.046;2023-03-01T06:26:40;2.60;;;1.30;;
5117;SDS011;2578;51.622;7.046;2023-03-01T06:29:06;2.60;;;1.40;;
5117;SDS011;2578;51.622;7.046;2023-03-01T06:31:33;2.60;;;1.30;;
5117;SDS011;2578;51.622;7.046;2023-03-01T06:33:59;2.67;;;1.40;;
5117;SDS011;2578;51.622;7.046;2023-03-01T06:36:25;2.70;;;1.53;;
5117;SDS011;2578;51.622;7.046;2023-03-01T06:38:50;2.70;;;1.50;;
5117;SDS011;2578;51.622;7.046;2023-03-01T06:41:16;2.70;;;1.50;;
5117;SDS011;2578;51.622;7.046;2023-03-01T06:43:41;2.70;;;1.40;;
5117;SDS011;2578;51.622;7.046;2023-03-01T06:46:07;2.60;;;1.30;;
5117;SDS011;2578;51.622;7.046;2023-03-01T06:48:33;2.60;;;1.20;;
5117;SDS011;2578;51.622;7.046;2023-03-01T06:50:59;2.60;;;1.20;;
5117;SDS011;2578;51.622;7.046;2023-03-01T06:53:26;2.90;;;1.93;;
5117;SDS011;2578;51.622;7.046;2023-03-01T06:55:56;2.60;;;1.00;;
5117;SDS011;2578;51.622;7.046;2023-03-01T06:58:22;2.57;;;1.00;;
5117;SDS011;2578;51.622;7.046;2023-03-01T07:00:48;2.60;;;1.00;;
5117;SDS011;2578;51.622;7.046;2023-03-01T07:03:14;2.57;;;0.90;;
5117;SDS011;2578;51.622;7.046;2023-03-01T07:05:39;2.60;;;1.00;;
5117;SDS011;2578;51.622;7.046;2023-03-01T07:08:05;2.70;;;1.10;;
5117;SDS011;2578;51.622;7.046;2023-03-01T07:10:31;2.60;;;1.00;;
5117;SDS011;2578;51.622;7.046;2023-03-01T07:12:57;2.60;;;0.90;;
5117;SDS011;2578;51.622;7.046;2023-03-01T07:15:23;2.60;;;0.90;;
5117;SDS011;2578;51.622;7.046;2023-03-01T07:17:50;2.57;;;0.90;;
5117;SDS011;2578;51.622;7.046;2023-03-01T07:20:16;7.70;;;2.27;;
5117;SDS011;2578;51.622;7.046;2023-03-01T07:22:43;2.63;;;0.97;;
5117;SDS011;2578;51.622;7.046;2023-03-01T07:25:09;3.77;;;2.07;;
5117;SDS011;2578;51.622;7.046;2023-03-01T07:27:35;3.03;;;1.77;;
5117;SDS011;2578;51.622;7.046;2023-03-01T07:30:00;6.67;;;1.77;;
5117;SDS011;2578;51.622;7.046;2023-03-01T07:32:26;2.87;;;1.63;;
5117;SDS011;2578;51.622;7.046;2023-03-01T07:34:52;3.50;;;2.13;;
5117;SDS011;2578;51.622;7.046;2023-03-01T07:37:17;3.83;;;3.43;;
5117;SDS011;2578;51.622;7.046;2023-03-01T07:39:43;4.93;;;4.53;;
5117;SDS011;2578;51.622;7.046;2023-03-01T07:42:08;13.33;;;7.03;;
5117;SDS011;2578;51.622;7.046;2023-03-01T07:44:34;8.97;;;8.13;;
5117;SDS011;2578;51.622;7.046;2023-03-01T07:47:00;9.00;;;8.40;;
5117;SDS011;2578;51.622;7.046;2023-03-01T07:49:26;9.83;;;9.23;;
5117;SDS011;2578;51.622;7.046;2023-03-01T07:51:52;11.73;;;10.73;;
5117;SDS011;2578;51.622;7.046;2023-03-01T07:54:18;10.07;;;9.47;;
5117;SDS011;2578;51.622;7.046;2023-03-01T07:56:43;11.60;;;10.80;;
5117;SDS011;2578;51.622;7.046;2023-03-01T07:59:09;13.77;;;12.67;;
5117;SDS011;2578;51.622;7.046;2023-03-01T08:01:34;12.40;;;11.60;;
5117;SDS011;2578;51.622;7.046;2023-03-01T08:04:00;12.97;;;12.17;;
5117;SDS011;2578;51.622;7.046;2023-03-01T08:06:26;12.60;;;11.80;;
5117;SDS011;2578;51.622;7.046;2023-03-01T08:08:52;16.70;;;15.40;;
5117;SDS011;2578;51.622;7.046;2023-03-01T08:11:20;13.20;;;12.40;;
5117;SDS011;2578;51.622;7.046;2023-03-01T08:13:47;14.00;;;13.10;;
5117;SDS011;2578;51.622;7.046;2023-03-01T08:16:14;14.60;;;13.70;;
5117;SDS011;2578;51.622;7.046;2023-03-01T08:18:40;16.47;;;15.37;;
5117;SDS011;2578;51.622;7.046;2023-03-01T08:21:08;16.50;;;15.40;;
5117;SDS011;2578;51.622;7.046;2023-03-01T08:23:39;18.43;;;17.03;;
5117;SDS011;2578;51.622;7.046;2023-03-01T08:26:06;17.60;;;16.40;;
5117;SDS011;2578;51.622;7.046;2023-03-01T08:28:37;16.50;;;15.40;;
5117;SDS011;2578;51.622;7.046;2023-03-01T08:31:03;19.00;;;17.60;;
5117;SDS011;2578;51.622;7.046;2023-03-01T08:33:52;18.10;;;16.90;;
5117;SDS011;2578;51.622;7.046;2023-03-01T08:36:30;18.17;;;16.97;;
5117;SDS011;2578;51.622;7.046;2023-03-01T08:38:57;17.80;;;16.70;;
5117;SDS011;2578;51.622;7.046;2023-03-01T08:41:23;16.50;;;15.50;;
5117;SDS011;2578;51.622;7.046;2023-03-01T08:43:49;18.23;;;17.10;;
5117;SDS011;2578;51.622;7.046;2023-03-01T08:46:15;17.23;;;16.13;;
5117;SDS011;2578;51.622;7.046;2023-03-01T08:48:41;17.93;;;16.63;;
5117;SDS011;2578;51.622;7.046;2023-03-01T08:51:11;19.77;;;18.33;;
5117;SDS011;2578;51.622;7.046;2023-03-01T08:53:39;18.07;;;16.87;;
5117;SDS011;2578;51.622;7.046;2023-03-01T08:56:04;18.70;;;17.43;;
5117;SDS011;2578;51.622;7.046;2023-03-01T08:58:31;19.10;;;17.80;;
5117;SDS011;2578;51.622;7.046;2023-03-01T09:00:57;19.30;;;18.00;;
5117;SDS011;2578;51.622;7.046;2023-03-01T09:03:23;19.83;;;18.47;;
5117;SDS011;2578;51.622;7.046;2023-03-01T09:05:50;19.10;;;17.80;;
5117;SDS011;2578;51.622;7.046;2023-03-01T09:08:16;19.70;;;18.30;;
5117;SDS011;2578;51.622;7.046;2023-03-01T09:10:42;21.33;;;19.33;;
5117;SDS011;2578;51.622;7.046;2023-03-01T09:13:08;20.60;;;19.20;;
5117;SDS011;2578;51.622;7.046;2023-03-01T09:15:34;20.90;;;18.90;;
5117;SDS011;2578;51.622;7.046;2023-03-01T09:18:02;19.43;;;18.10;;
5117;SDS011;2578;51.622;7.046;2023-03-01T09:20:27;21.20;;;19.70;;
5117;SDS011;2578;51.622;7.046;2023-03-01T09:22:53;20.60;;;19.10;;
5117;SDS011;2578;51.622;7.046;2023-03-01T09:25:19;20.33;;;18.93;;
5117;SDS011;2578;51.622;7.046;2023-03-01T09:27:44;21.20;;;19.67;;
5117;SDS011;2578;51.622;7.046;2023-03-01T09:30:10;20.17;;;18.73;;
5117;SDS011;2578;51.622;7.046;2023-03-01T09:32:36;19.80;;;18.40;;
5117;SDS011;2578;51.622;7.046;2023-03-01T09:35:01;20.70;;;19.30;;
5117;SDS011;2578;51.622;7.046;2023-03-01T09:37:31;21.93;;;20.23;;
5117;SDS011;2578;51.622;7.046;2023-03-01T09:39:57;21.33;;;19.73;;
5117;SDS011;2578;51.622;7.046;2023-03-01T09:42:23;21.40;;;19.70;;
5117;SDS011;2578;51.622;7.046;2023-03-01T09:44:51;21.47;;;19.80;;
5117;SDS011;2578;51.622;7.046;2023-03-01T09:47:51;22.70;;;21.00;;
5117;SDS011;2578;51.622;7.046;2023-03-01T09:50:19;25.40;;;23.30;;
5117;SDS011;2578;51.622;7.046;2023-03-01T09:52:46;23.50;;;21.80;;
5117;SDS011;2578;51.622;7.046;2023-03-01T09:55:43;22.37;;;20.77;;
5117;SDS011;2578;51.622;7.046;2023-03-01T10:09:51;25.00;;;23.10;;
5117;SDS011;2578;51.622;7.046;2023-03-01T10:12:20;25.00;;;23.10;;
5117;SDS011;2578;51.622;7.046;2023-03-01T10:18:24;26.73;;;24.53;;
5117;SDS011;2578;51.622;7.046;2023-03-01T10:20:59;25.83;;;23.40;;
5117;SDS011;2578;51.622;7.046;2023-03-01T10:23:27;22.90;;;21.30;;
5117;SDS011;2578;51.622;7.046;2023-03-01T10:26:01;23.27;;;21.57;;
5117;SDS011;2578;51.622;7.046;2023-03-01T10:31:18;22.53;;;20.83;;
5117;SDS011;2578;51.622;7.046;2023-03-01T10:33:48;22.43;;;20.73;;
5117;SDS011;2578;51.622;7.046;2023-03-01T10:36:18;24.57;;;22.40;;
5117;SDS011;2578;51.622;7.046;2023-03-01T10:38:49;24.40;;;22.37;;
5117;SDS011;2578;51.622;7.046;2023-03-01T10:41:18;23.60;;;21.90;;
5117;SDS011;2578;51.622;7.046;2023-03-01T10:43:52;24.27;;;22.07;;
5117;SDS011;2578;51.622;7.046;2023-03-01T10:49:15;24.90;;;23.10;;
5117;SDS011;2578;51.622;7.046;2023-03-01T10:51:44;27.00;;;24.90;;
5117;SDS011;2578;51.622;7.046;2023-03-01T10:54:26;26.13;;;24.33;;
5117;SDS011;2578;51.622;7.046;2023-03-01T10:56:55;29.00;;;27.10;;
5117;SDS011;2578;51.622;7.046;2023-03-01T11:02:14;34.87;;;28.13;;
5117;SDS011;2578;51.622;7.046;2023-03-01T11:07:52;25.03;;;23.13;;
5117;SDS011;2578;51.622;7.046;2023-03-01T11:10:37;25.40;;;23.50;;
5117;SDS011;2578;51.622;7.046;2023-03-01T11:13:07;29.40;;;27.03;;
5117;SDS011;2578;51.622;7.046;2023-03-01T11:15:39;29.80;;;27.60;;
5117;SDS011;2578;51.622;7.046;2023-03-01T11:18:05;28.83;;;26.73;;
5117;SDS011;2578;51.622;7.046;2023-03-01T11:20:46;29.20;;;27.10;;
5117;SDS011;2578;51.622;7.046;2023-03-01T11:23:16;31.87;;;29.57;;
5117;SDS011;2578;51.622;7.046;2023-03-01T11:25:46;29.70;;;27.40;;
5117;SDS011;2578;51.622;7.046;2023-03-01T11:28:24;32.77;;;30.10;;
5117;SDS011;2578;51.622;7.046;2023-03-01T11:36:13;32.77;;;30.47;;
5117;SDS011;2578;51.622;7.046;2023-03-01T11:38:46;31.37;;;29.07;;
5117;SDS011;2578;51.622;7.046;2023-03-01T11:41:14;33.13;;;30.33;;
5117;SDS011;2578;51.622;7.046;2023-03-01T11:51:53;32.60;;;30.03;;
5117;SDS011;2578;51.622;7.046;2023-03-01T12:10:43;33.63;;;31.13;;
5117;SDS011;2578;51.622;7.046;2023-03-01T12:24:35;31.17;;;28.87;;
5117;SDS011;2578;51.622;7.046;2023-03-01T12:32:47;34.60;;;32.20;;
5117;SDS011;2578;51.622;7.046;2023-03-01T12:44:10;30.80;;;28.60;;
5117;SDS011;2578;51.622;7.046;2023-03-01T12:47:16;31.00;;;28.80;;
5117;SDS011;2578;51.622;7.046;2023-03-01T12:50:05;31.00;;;28.70;;
5117;SDS011;2578;51.622;7.046;2023-03-01T12:52:54;28.60;;;26.50;;
5117;SDS011;2578;51.622;7.046;2023-03-01T12:58:20;30.60;;;28.30;;
5117;SDS011;2578;51.622;7.046;2023-03-01T13:09:11;31.03;;;28.83;;
5117;SDS011;2578;51.622;7.046;2023-03-01T13:11:50;31.60;;;29.40;;
5117;SDS011;2578;51.622;7.046;2023-03-01T13:16:51;33.27;;;30.97;;
5117;SDS011;2578;51.622;7.046;2023-03-01T13:19:22;37.87;;;34.77;;
5117;SDS011;2578;51.622;7.046;2023-03-01T13:21:52;33.80;;;31.50;;
5117;SDS011;2578;51.622;7.046;2023-03-01T13:25:02;31.03;;;28.73;;
5117;SDS011;2578;51.622;7.046;2023-03-01T13:32:35;31.00;;;28.60;;
5117;SDS011;2578;51.622;7.046;2023-03-01T13:37:43;30.23;;;27.83;;
5117;SDS011;2578;51.622;7.046;2023-03-01T13:42:43;28.20;;;26.10;;
5117;SDS011;2578;51.622;7.046;2023-03-01T13:51:27;31.67;;;29.37;;
5117;SDS011;2578;51.622;7.046;2023-03-01T13:53:53;30.90;;;28.60;;
5117;SDS011;2578;51.622;7.046;2023-03-01T13:56:33;30.17;;;27.87;;
5117;SDS011;2578;51.622;7.046;2023-03-01T13:59:02;29.43;;;27.27;;
5117;SDS011;2578;51.622;7.046;2023-03-01T14:01:40;32.10;;;29.80;;
5117;SDS011;2578;51.622;7.046;2023-03-01T14:06:49;31.80;;;29.30;;
5117;SDS011;2578;51.622;7.046;2023-03-01T14:14:36;31.83;;;29.43;;
5117;SDS011;2578;51.622;7.046;2023-03-01T14:19:54;32.70;;;29.67;;
5117;SDS011;2578;51.622;7.046;2023-03-01T14:22:25;30.70;;;28.50;;
5117;SDS011;2578;51.622;7.046;2023-03-01T14:25:00;32.00;;;29.30;;
5117;SDS011;2578;51.622;7.046;2023-03-01T14:27:37;32.40;;;29.70;;
5117;SDS011;2578;51.622;7.046;2023-03-01T14:30:14;30.60;;;28.30;;
5117;SDS011;2578;51.622;7.046;2023-03-01T14:32:56;33.00;;;30.60;;
5117;SDS011;2578;51.622;7.046;2023-03-01T14:35:27;33.70;;;31.00;;
5117;SDS011;2578;51.622;7.046;2023-03-01T14:37:54;32.03;;;29.43;;
5117;SDS011;2578;51.622;7.046;2023-03-01T14:40:22;30.73;;;28.33;;
5117;SDS011;2578;51.622;7.046;2023-03-01T14:42:48;32.30;;;29.60;;
5117;SDS011;2578;51.622;7.046;2023-03-01T14:45:13;31.13;;;28.37;;
5117;SDS011;2578;51.622;7.046;2023-03-01T14:47:39;32.10;;;29.80;;
5117;SDS011;2578;51.622;7.046;2023-03-01T14:52:55;28.87;;;26.70;;
5117;SDS011;2578;51.622;7.046;2023-03-01T14:55:33;29.60;;;27.10;;
5117;SDS011;2578;51.622;7.046;2023-03-01T14:58:05;29.87;;;27.53;;
5117;SDS011;2578;51.622;7.046;2023-03-01T15:00:36;29.83;;;27.63;;
5117;SDS011;2578;51.622;7.046;2023-03-01T15:03:06;31.90;;;29.40;;
5117;SDS011;2578;51.622;7.046;2023-03-01T15:05:38;30.27;;;27.90;;
5117;SDS011;2578;51.622;7.046;2023-03-01T15:08:05;27.40;;;25.30;;
5117;SDS011;2578;51.622;7.046;2023-03-01T15:10:34;28.27;;;25.97;;
5117;SDS011;2578;51.622;7.046;2023-03-01T15:13:19;28.10;;;25.90;;
5117;SDS011;2578;51.622;7.046;2023-03-01T15:15:48;28.40;;;26.20;;
5117;SDS011;2578;51.622;7.046;2023-03-01T15:18:26;28.77;;;26.57;;
5117;SDS011;2578;51.622;7.046;2023-03-01T15:20:53;28.90;;;26.70;;
5117;SDS011;2578;51.622;7.046;2023-03-01T15:25:50;30.63;;;28.03;;
5117;SDS011;2578;51.622;7.046;2023-03-01T15:28:21;32.20;;;29.47;;
5117;SDS011;2578;51.622;7.046;2023-03-01T15:30:56;32.07;;;29.67;;
5117;SDS011;2578;51.622;7.046;2023-03-01T15:35:52;32.43;;;29.93;;
5117;SDS011;2578;51.622;7.046;2023-03-01T15:38:35;34.40;;;31.70;;
5117;SDS011;2578;51.622;7.046;2023-03-01T15:41:25;30.23;;;28.03;;
5117;SDS011;2578;51.622;7.046;2023-03-01T15:43:53;30.50;;;28.17;;
5117;SDS011;2578;51.622;7.046;2023-03-01T15:46:25;31.13;;;28.93;;
5117;SDS011;2578;51.622;7.046;2023-03-01T15:48:54;32.83;;;30.33;;
5117;SDS011;2578;51.622;7.046;2023-03-01T15:51:27;30.00;;;27.70;;
5117;SDS011;2578;51.622;7.046;2023-03-01T15:53:58;30.83;;;28.40;;
5117;SDS011;2578;51.622;7.046;2023-03-01T15:56:26;31.53;;;29.13;;
5117;SDS011;2578;51.622;7.046;2023-03-01T15:58:51;32.33;;;29.83;;
5117;SDS011;2578;51.622;7.046;2023-03-01T16:01:17;31.73;;;29.30;;
5117;SDS011;2578;51.622;7.046;2023-03-01T16:03:43;30.83;;;28.43;;
5117;SDS011;2578;51.622;7.046;2023-03-01T16:06:09;28.33;;;26.13;;
5117;SDS011;2578;51.622;7.046;2023-03-01T16:08:36;26.50;;;24.50;;
5117;SDS011;2578;51.622;7.046;2023-03-01T16:11:04;27.40;;;25.00;;
5117;SDS011;2578;51.622;7.046;2023-03-01T16:13:33;27.00;;;25.00;;
5117;SDS011;2578;51.622;7.046;2023-03-01T16:15:59;28.53;;;26.10;;
5117;SDS011;2578;51.622;7.046;2023-03-01T16:18:25;25.83;;;23.93;;
5117;SDS011;2578;51.622;7.046;2023-03-01T16:20:50;26.80;;;24.80;;
5117;SDS011;2578;51.622;7.046;2023-03-01T16:23:17;26.20;;;24.10;;
5117;SDS011;2578;51.622;7.046;2023-03-01T16:25:43;26.63;;;24.10;;
5117;SDS011;2578;51.622;7.046;2023-03-01T16:28:08;26.17;;;24.07;;
5117;SDS011;2578;51.622;7.046;2023-03-01T16:30:35;26.10;;;24.13;;
5117;SDS011;2578;51.622;7.046;2023-03-01T16:33:02;26.70;;;24.60;;
5117;SDS011;2578;51.622;7.046;2023-03-01T16:35:31;26.80;;;24.80;;
5117;SDS011;2578;51.622;7.046;2023-03-01T16:37:57;26.67;;;24.70;;
5117;SDS011;2578;51.622;7.046;2023-03-01T16:40:25;26.10;;;24.20;;
5117;SDS011;2578;51.622;7.046;2023-03-01T16:42:52;27.73;;;25.73;;
5117;SDS011;2578;51.622;7.046;2023-03-01T16:45:18;26.87;;;24.97;;
5117;SDS011;2578;51.622;7.046;2023-03-01T16:47:44;28.87;;;26.47;;
5117;SDS011;2578;51.622;7.046;2023-03-01T16:50:10;25.40;;;23.50;;
5117;SDS011;2578;51.622;7.046;2023-03-01T16:52:41;27.33;;;25.23;;
5117;SDS011;2578;51.622;7.046;2023-03-01T16:55:07;25.77;;;23.77;;
5117;SDS011;2578;51.622;7.046;2023-03-01T16:57:34;27.30;;;24.97;;
5117;SDS011;2578;51.622;7.046;2023-03-01T17:00:00;26.73;;;24.93;;
5117;SDS011;2578;51.622;7.046;2023-03-01T17:02:33;26.77;;;24.87;;
5117;SDS011;2578;51.622;7.046;2023-03-01T17:05:00;26.57;;;24.43;;
5117;SDS011;2578;51.622;7.046;2023-03-01T17:07:25;26.60;;;24.70;;
5117;SDS011;2578;51.622;7.046;2023-03-01T17:09:51;26.90;;;24.90;;
5117;SDS011;2578;51.622;7.046;2023-03-01T17:12:16;27.97;;;25.97;;
5117;SDS011;2578;51.622;7.046;2023-03-01T17:14:42;25.30;;;23.40;;
5117;SDS011;2578;51.622;7.046;2023-03-01T17:17:08;25.60;;;23.60;;
5117;SDS011;2578;51.622;7.046;2023-03-01T17:19:34;25.23;;;23.33;;
5117;SDS011;2578;51.622;7.046;2023-03-01T17:22:04;24.77;;;23.07;;
5117;SDS011;2578;51.622;7.046;2023-03-01T17:24:34;24.90;;;23.10;;
5117;SDS011;2578;51.622;7.046;2023-03-01T17:27:01;25.00;;;23.30;;
5117;SDS011;2578;51.622;7.046;2023-03-01T17:29:27;27.87;;;25.87;;
5117;SDS011;2578;51.622;7.046;2023-03-01T17:31:53;24.47;;;22.77;;
5117;SDS011;2578;51.622;7.046;2023-03-01T17:34:20;22.90;;;21.30;;